sensor_id;sensor_type;location;lat;lon;timestamp;pressure;altitude;pressure_sealevel;temperature;humidity
31092;BME280;67728;53.122;12.776;2024-02-15T00:00:52;100748.91;;;8.81;100.00
31092;BME280;67728;53.122;12.776;2024-02-15T00:02:23;100748.91;;;8.81;100.00
31092;BME280;67728;53.122;12.776;2024-02-15T00:03:54;100743.75;;;8.80;100.00
31092;BME280;67728;53.122;12.776;2024-02-15T00:05:27;100745.44;;;8.82;100.00
31092;BME280;67728;53.122;12.776;2024-02-15T00:06:58;100742.00;;;8.82;100.00
31092;BME280;67728;53.122;12.776;2024-02-15T00:08:30;100748.91;;;8.83;100.00
31092;BME280;67728;53.122;12.776;2024-02-15T00:10:01;100745.44;;;8.82;100.00
31092;BME280;67728;53.122;12.776;2024-02-15T00:11:33;100745.44;;;8.82;100.00
31092;BME280;67728;53.122;12.776;2024-02-15T00:13:04;100737.69;;;8.82;100.00
31092;BME280;67728;53.122;12.776;2024-02-15T00:14:36;100742.88;;;8.82;100.00
31092;BME280;67728;53.122;12.776;2024-02-15T00:16:08;100741.13;;;8.83;100.00
31092;BME280;67728;53.122;12.776;2024-02-15T00:17:40;100742.88;;;8.82;100.00
31092;BME280;67728;53.122;12.776;2024-02-15T00:19:11;100747.19;;;8.80;100.00
31092;BME280;67728;53.122;12.776;2024-02-15T00:20:45;100757.53;;;8.82;100.00
31092;BME280;67728;53.122;12.776;2024-02-15T00:22:16;100758.38;;;8.82;100.00
31092;BME280;67728;53.122;12.776;2024-02-15T00:23:47;100756.66;;;8.83;100.00
31092;BME280;67728;53.122;12.776;2024-02-15T00:25:19;100756.66;;;8.83;100.00
31092;BME280;67728;53.122;12.776;2024-02-15T00:26:50;100749.75;;;8.82;100.00
31092;BME280;67728;53.122;12.776;2024-02-15T00:28:23;100754.06;;;8.81;100.00
31092;BME280;67728;53.122;12.776;2024-02-15T00:29:56;100758.38;;;8.82;100.00
31092;BME280;67728;53.122;12.776;2024-02-15T00:31:27;100751.47;;;8.81;100.00
31092;BME280;67728;53.122;12.776;2024-02-15T00:32:59;100748.91;;;8.81;100.00
31092;BME280;67728;53.122;12.776;2024-02-15T00:34:31;100749.75;;;8.82;100.00
31092;BME280;67728;53.122;12.776;2024-02-15T00:36:04;100749.75;;;8.82;100.00
31092;BME280;67728;53.122;12.776;2024-02-15T00:37:35;100751.47;;;8.81;100.00
31092;BME280;67728;53.122;12.776;2024-02-15T00:39:07;100754.06;;;8.81;100.00
31092;BME280;67728;53.122;12.776;2024-02-15T00:40:38;100745.47;;;8.81;100.00
31092;BME280;67728;53.122;12.776;2024-02-15T00:42:10;100745.47;;;8.79;100.00
31092;BME280;67728;53.122;12.776;2024-02-15T00:43:41;100746.34;;;8.80;100.00
31092;BME280;67728;53.122;12.776;2024-02-15T00:45:12;100746.34;;;8.80;100.00
31092;BME280;67728;53.122;12.776;2024-02-15T00:46:44;100743.75;;;8.80;100.00
31092;BME280;67728;53.122;12.776;2024-02-15T00:48:15;100741.16;;;8.80;100.00
31092;BME280;67728;53.122;12.776;2024-02-15T00:49:46;100741.19;;;8.78;100.00
31092;BME280;67728;53.122;12.776;2024-02-15T00:51:18;100736.88;;;8.77;100.00
31092;BME280;67728;53.122;12.776;2024-02-15T00:52:50;100741.19;;;8.77;100.00
31092;BME280;67728;53.122;12.776;2024-02-15T00:54:20;100743.78;;;8.78;100.00
31092;BME280;67728;53.122;12.776;2024-02-15T00:55:53;100735.16;;;8.76;100.00
31092;BME280;67728;53.122;12.776;2024-02-15T00:57:23;100743.75;;;8.77;100.00
31092;BME280;67728;53.122;12.776;2024-02-15T00:58:55;100745.50;;;8.76;100.00
31092;BME280;67728;53.122;12.776;2024-02-15T01:00:25;100744.66;;;8.76;100.00
31092;BME280;67728;53.122;12.776;2024-02-15T01:01:57;100744.66;;;8.74;100.00
31092;BME280;67728;53.122;12.776;2024-02-15T01:03:28;100742.94;;;8.75;100.00
31092;BME280;67728;53.122;12.776;2024-02-15T01:04:59;100753.28;;;8.75;100.00
31092;BME280;67728;53.122;12.776;2024-02-15T01:06:32;100743.78;;;8.75;100.00
31092;BME280;67728;53.122;12.776;2024-02-15T01:08:03;100750.69;;;8.75;100.00
31092;BME280;67728;53.122;12.776;2024-02-15T01:09:35;100751.56;;;8.75;100.00
31092;BME280;67728;53.122;12.776;2024-02-15T01:11:06;100745.50;;;8.75;100.00
31092;BME280;67728;53.122;12.776;2024-02-15T01:12:39;100748.09;;;8.75;100.00
31092;BME280;67728;53.122;12.776;2024-02-15T01:14:10;100747.25;;;8.74;100.00
31092;BME280;67728;53.122;12.776;2024-02-15T01:15:42;100749.81;;;8.74;100.00
31092;BME280;67728;53.122;12.776;2024-02-15T01:17:12;100753.28;;;8.75;100.00
31092;BME280;67728;53.122;12.776;2024-02-15T01:18:46;100744.66;;;8.74;100.00
31092;BME280;67728;53.122;12.776;2024-02-15T01:20:17;100747.25;;;8.74;100.00
31092;BME280;67728;53.122;12.776;2024-02-15T01:21:49;100748.97;;;8.74;100.00
31092;BME280;67728;53.122;12.776;2024-02-15T01:23:21;100753.28;;;8.75;100.00
31092;BME280;67728;53.122;12.776;2024-02-15T01:24:52;100744.66;;;8.74;100.00
31092;BME280;67728;53.122;12.776;2024-02-15T01:26:24;100754.13;;;8.74;100.00
31092;BME280;67728;53.122;12.776;2024-02-15T01:27:55;100748.97;;;8.74;100.00
31092;BME280;67728;53.122;12.776;2024-02-15T01:29:26;100747.25;;;8.73;100.00
31092;BME280;67728;53.122;12.776;2024-02-15T01:30:57;100742.09;;;8.73;100.00
31092;BME280;67728;53.122;12.776;2024-02-15T01:32:28;100753.25;;;8.73;100.00
31092;BME280;67728;53.122;12.776;2024-02-15T01:33:59;100743.81;;;8.72;100.00
31092;BME280;67728;53.122;12.776;2024-02-15T01:35:31;100745.50;;;8.73;100.00
31092;BME280;67728;53.122;12.776;2024-02-15T01:37:03;100742.09;;;8.73;100.00
31092;BME280;67728;53.122;12.776;2024-02-15T01:38:35;100745.50;;;8.73;100.00
31092;BME280;67728;53.122;12.776;2024-02-15T01:40:07;100743.78;;;8.74;100.00
31092;BME280;67728;53.122;12.776;2024-02-15T01:41:46;100735.16;;;8.73;100.00
31092;BME280;67728;53.122;12.776;2024-02-15T01:43:18;100740.34;;;8.73;100.00
31092;BME280;67728;53.122;12.776;2024-02-15T01:44:49;100743.78;;;8.74;100.00
31092;BME280;67728;53.122;12.776;2024-02-15T01:46:20;100732.59;;;8.72;100.00
31092;BME280;67728;53.122;12.776;2024-02-15T01:47:52;100733.44;;;8.74;100.00
31092;BME280;67728;53.122;12.776;2024-02-15T01:49:24;100734.31;;;8.74;100.00
31092;BME280;67728;53.122;12.776;2024-02-15T01:50:57;100731.72;;;8.74;100.00
31092;BME280;67728;53.122;12.776;2024-02-15T01:52:30;100730.84;;;8.74;100.00
31092;BME280;67728;53.122;12.776;2024-02-15T01:54:02;100728.28;;;8.74;100.00
31092;BME280;67728;53.122;12.776;2024-02-15T01:55:32;100732.59;;;8.75;100.00
31092;BME280;67728;53.122;12.776;2024-02-15T01:57:04;100727.41;;;8.73;100.00
31092;BME280;67728;53.122;12.776;2024-02-15T01:58:35;100729.13;;;8.74;100.00
31092;BME280;67728;53.122;12.776;2024-02-15T02:00:08;100729.13;;;8.74;100.00
31092;BME280;67728;53.122;12.776;2024-02-15T02:01:39;100729.13;;;8.74;100.00
31092;BME280;67728;53.122;12.776;2024-02-15T02:03:12;100727.41;;;8.73;100.00
31092;BME280;67728;53.122;12.776;2024-02-15T02:04:45;100722.22;;;8.73;100.00
31092;BME280;67728;53.122;12.776;2024-02-15T02:06:16;100712.75;;;8.74;100.00
31092;BME280;67728;53.122;12.776;2024-02-15T02:07:48;100714.47;;;8.75;100.00
31092;BME280;67728;53.122;12.776;2024-02-15T02:09:20;100716.22;;;8.76;100.00
31092;BME280;67728;53.122;12.776;2024-02-15T02:10:51;100719.63;;;8.76;100.00
31092;BME280;67728;53.122;12.776;2024-02-15T02:12:23;100719.63;;;8.76;100.00
31092;BME280;67728;53.122;12.776;2024-02-15T02:13:58;100717.94;;;8.75;100.00
31092;BME280;67728;53.122;12.776;2024-02-15T02:15:31;100721.38;;;8.76;100.00
31092;BME280;67728;53.122;12.776;2024-02-15T02:17:10;100717.03;;;8.76;100.00
31092;BME280;67728;53.122;12.776;2024-02-15T02:18:43;100729.13;;;8.77;100.00
31092;BME280;67728;53.122;12.776;2024-02-15T02:20:17;100711.88;;;8.76;100.00
31092;BME280;67728;53.122;12.776;2024-02-15T02:21:48;100723.94;;;8.77;100.00
31092;BME280;67728;53.122;12.776;2024-02-15T02:23:25;100723.09;;;8.77;100.00
31092;BME280;67728;53.122;12.776;2024-02-15T02:25:00;100723.94;;;8.77;100.00
31092;BME280;67728;53.122;12.776;2024-02-15T02:26:33;100723.09;;;8.77;100.00
31092;BME280;67728;53.122;12.776;2024-02-15T02:28:06;100709.28;;;8.78;100.00
31092;BME280;67728;53.122;12.776;2024-02-15T02:29:42;100712.75;;;8.78;100.00
31092;BME280;67728;53.122;12.776;2024-02-15T02:31:16;100713.56;;;8.79;100.00
31092;BME280;67728;53.122;12.776;2024-02-15T02:32:48;100714.44;;;8.79;100.00
31092;BME280;67728;53.122;12.776;2024-02-15T02:34:18;100707.56;;;8.78;100.00
31092;BME280;67728;53.122;12.776;2024-02-15T02:35:50;100711.84;;;8.79;100.00
31092;BME280;67728;53.122;12.776;2024-02-15T02:37:21;100706.69;;;8.81;100.00
31092;BME280;67728;53.122;12.776;2024-02-15T02:38:52;100711.84;;;8.79;100.00
31092;BME280;67728;53.122;12.776;2024-02-15T02:40:25;100710.97;;;8.79;100.00
31092;BME280;67728;53.122;12.776;2024-02-15T02:41:57;100717.03;;;8.79;100.00
31092;BME280;67728;53.122;12.776;2024-02-15T02:43:28;100714.44;;;8.79;100.00
31092;BME280;67728;53.122;12.776;2024-02-15T02:45:00;100717.88;;;8.80;100.00
31092;BME280;67728;53.122;12.776;2024-02-15T02:46:30;100717.03;;;8.79;100.00
31092;BME280;67728;53.122;12.776;2024-02-15T02:48:02;100716.16;;;8.80;100.00
31092;BME280;67728;53.122;12.776;2024-02-15T02:49:35;100721.34;;;8.80;100.00
31092;BME280;67728;53.122;12.776;2024-02-15T02:51:07;100722.19;;;8.81;100.00
31092;BME280;67728;53.122;12.776;2024-02-15T02:52:38;100718.75;;;8.80;100.00
31092;BME280;67728;53.122;12.776;2024-02-15T02:54:10;100713.56;;;8.80;100.00
31092;BME280;67728;53.122;12.776;2024-02-15T02:55:42;100715.28;;;8.81;100.00
31092;BME280;67728;53.122;12.776;2024-02-15T02:57:14;100721.31;;;8.82;100.00
31092;BME280;67728;53.122;12.776;2024-02-15T02:58:45;100728.19;;;8.81;100.00
31092;BME280;67728;53.122;12.776;2024-02-15T03:00:17;100716.13;;;8.82;100.00
31092;BME280;67728;53.122;12.776;2024-02-15T03:01:48;100717.00;;;8.82;100.00
31092;BME280;67728;53.122;12.776;2024-02-15T03:03:20;100720.44;;;8.83;100.00
31092;BME280;67728;53.122;12.776;2024-02-15T03:04:50;100721.31;;;8.82;100.00
31092;BME280;67728;53.122;12.776;2024-02-15T03:06:23;100720.44;;;8.84;100.00
31092;BME280;67728;53.122;12.776;2024-02-15T03:07:55;100716.97;;;8.85;100.00
31092;BME280;67728;53.122;12.776;2024-02-15T03:09:27;100719.56;;;8.85;100.00
31092;BME280;67728;53.122;12.776;2024-02-15T03:11:01;100721.28;;;8.86;100.00
31092;BME280;67728;53.122;12.776;2024-02-15T03:12:33;100722.16;;;8.85;100.00
31092;BME280;67728;53.122;12.776;2024-02-15T03:14:05;100722.13;;;8.87;100.00
31092;BME280;67728;53.122;12.776;2024-02-15T03:15:37;100729.00;;;8.89;100.00
31092;BME280;67728;53.122;12.776;2024-02-15T03:17:08;100726.44;;;8.88;100.00
31092;BME280;67728;53.122;12.776;2024-02-15T03:18:39;100722.13;;;8.88;100.00
31092;BME280;67728;53.122;12.776;2024-02-15T03:20:12;100724.72;;;8.88;100.00
31092;BME280;67728;53.122;12.776;2024-02-15T03:21:50;100723.00;;;8.89;100.00
31092;BME280;67728;53.122;12.776;2024-02-15T03:23:23;100729.00;;;8.89;100.00
31092;BME280;67728;53.122;12.776;2024-02-15T03:24:55;100723.81;;;8.89;100.00
31092;BME280;67728;53.122;12.776;2024-02-15T03:26:30;100725.56;;;8.90;100.00
31092;BME280;67728;53.122;12.776;2024-02-15T03:28:04;100725.56;;;8.90;100.00
31092;BME280;67728;53.122;12.776;2024-02-15T03:29:35;100722.97;;;8.90;100.00
31092;BME280;67728;53.122;12.776;2024-02-15T03:31:07;100719.53;;;8.91;100.00
31092;BME280;67728;53.122;12.776;2024-02-15T03:32:37;100720.38;;;8.92;100.00
31092;BME280;67728;53.122;12.776;2024-02-15T03:34:10;100718.66;;;8.91;100.00
31092;BME280;67728;53.122;12.776;2024-02-15T03:35:41;100725.56;;;8.92;100.00
31092;BME280;67728;53.122;12.776;2024-02-15T03:37:13;100728.97;;;8.92;100.00
31092;BME280;67728;53.122;12.776;2024-02-15T03:38:43;100728.97;;;8.92;100.00
31092;BME280;67728;53.122;12.776;2024-02-15T03:40:15;100731.56;;;8.92;100.00
31092;BME280;67728;53.122;12.776;2024-02-15T03:41:49;100726.38;;;8.92;100.00
31092;BME280;67728;53.122;12.776;2024-02-15T03:43:21;100729.84;;;8.93;100.00
31092;BME280;67728;53.122;12.776;2024-02-15T03:44:51;100724.66;;;8.93;100.00
31092;BME280;67728;53.122;12.776;2024-02-15T03:46:24;100732.44;;;8.94;100.00
31092;BME280;67728;53.122;12.776;2024-02-15T03:47:55;100724.66;;;8.94;100.00
31092;BME280;67728;53.122;12.776;2024-02-15T03:49:27;100721.22;;;8.94;100.00
31092;BME280;67728;53.122;12.776;2024-02-15T03:50:58;100727.25;;;8.94;100.00
31092;BME280;67728;53.122;12.776;2024-02-15T03:52:29;100728.94;;;8.95;100.00
31092;BME280;67728;53.122;12.776;2024-02-15T03:54:01;100728.94;;;8.95;100.00
31092;BME280;67728;53.122;12.776;2024-02-15T03:55:34;100731.53;;;8.95;100.00
31092;BME280;67728;53.122;12.776;2024-02-15T03:57:08;100730.69;;;8.95;100.00
31092;BME280;67728;53.122;12.776;2024-02-15T03:58:38;100723.78;;;8.97;100.00
31092;BME280;67728;53.122;12.776;2024-02-15T04:00:11;100730.69;;;8.96;100.00
31092;BME280;67728;53.122;12.776;2024-02-15T04:01:43;100735.84;;;8.96;100.00
31092;BME280;67728;53.122;12.776;2024-02-15T04:03:17;100728.06;;;8.98;100.00
31092;BME280;67728;53.122;12.776;2024-02-15T04:04:49;100728.06;;;8.98;100.00
31092;BME280;67728;53.122;12.776;2024-02-15T04:06:22;100730.66;;;8.98;100.00
31092;BME280;67728;53.122;12.776;2024-02-15T04:07:55;100732.38;;;8.97;100.00
31092;BME280;67728;53.122;12.776;2024-02-15T04:09:27;100737.56;;;8.97;100.00
31092;BME280;67728;53.122;12.776;2024-02-15T04:10:57;100729.78;;;8.99;100.00
31092;BME280;67728;53.122;12.776;2024-02-15T04:12:30;100730.63;;;9.01;100.00
31092;BME280;67728;53.122;12.776;2024-02-15T04:14:01;100730.63;;;9.01;100.00
31092;BME280;67728;53.122;12.776;2024-02-15T04:15:33;100727.19;;;9.02;100.00
31092;BME280;67728;53.122;12.776;2024-02-15T04:17:05;100732.31;;;9.03;100.00
31092;BME280;67728;53.122;12.776;2024-02-15T04:18:35;100732.31;;;9.03;100.00
31092;BME280;67728;53.122;12.776;2024-02-15T04:20:09;100733.19;;;9.04;100.00
31092;BME280;67728;53.122;12.776;2024-02-15T04:21:40;100732.34;;;9.05;100.00
31092;BME280;67728;53.122;12.776;2024-02-15T04:23:14;100734.91;;;9.07;100.00
31092;BME280;67728;53.122;12.776;2024-02-15T04:24:44;100726.28;;;9.08;100.00
31092;BME280;67728;53.122;12.776;2024-02-15T04:26:16;100724.56;;;9.08;100.00
31092;BME280;67728;53.122;12.776;2024-02-15T04:27:48;100725.41;;;9.07;100.00
31092;BME280;67728;53.122;12.776;2024-02-15T04:29:20;100726.28;;;9.08;100.00
31092;BME280;67728;53.122;12.776;2024-02-15T04:30:51;100731.41;;;9.09;100.00
31092;BME280;67728;53.122;12.776;2024-02-15T04:32:22;100721.94;;;9.10;100.00
31092;BME280;67728;53.122;12.776;2024-02-15T04:33:54;100727.09;;;9.10;100.00
31092;BME280;67728;53.122;12.776;2024-02-15T04:35:25;100724.53;;;9.10;100.00
31092;BME280;67728;53.122;12.776;2024-02-15T04:36:58;100720.22;;;9.10;100.00
31092;BME280;67728;53.122;12.776;2024-02-15T04:38:30;100722.78;;;9.10;100.00
31092;BME280;67728;53.122;12.776;2024-02-15T04:40:00;100726.25;;;9.11;100.00
31092;BME280;67728;53.122;12.776;2024-02-15T04:41:38;100723.66;;;9.11;100.00
31092;BME280;67728;53.122;12.776;2024-02-15T04:43:10;100725.34;;;9.12;100.00
31092;BME280;67728;53.122;12.776;2024-02-15T04:44:42;100726.22;;;9.14;100.00
31092;BME280;67728;53.122;12.776;2024-02-15T04:46:13;100725.34;;;9.13;100.00
31092;BME280;67728;53.122;12.776;2024-02-15T04:47:45;100725.34;;;9.13;100.00
31092;BME280;67728;53.122;12.776;2024-02-15T04:49:16;100729.66;;;9.14;100.00
31092;BME280;67728;53.122;12.776;2024-02-15T04:50:47;100721.88;;;9.14;100.00
31092;BME280;67728;53.122;12.776;2024-02-15T04:52:19;100734.81;;;9.16;100.00
31092;BME280;67728;53.122;12.776;2024-02-15T04:53:54;100729.63;;;9.17;100.00
31092;BME280;67728;53.122;12.776;2024-02-15T04:55:24;100728.75;;;9.18;100.00
31092;BME280;67728;53.122;12.776;2024-02-15T04:56:57;100730.44;;;9.19;100.00
31092;BME280;67728;53.122;12.776;2024-02-15T04:58:29;100729.63;;;9.19;100.00
31092;BME280;67728;53.122;12.776;2024-02-15T05:00:00;100734.78;;;9.20;100.00
31092;BME280;67728;53.122;12.776;2024-02-15T05:01:31;100739.06;;;9.20;100.00
31092;BME280;67728;53.122;12.776;2024-02-15T05:03:04;100741.66;;;9.20;100.00
31092;BME280;67728;53.122;12.776;2024-02-15T05:04:34;100733.91;;;9.20;100.00
31092;BME280;67728;53.122;12.776;2024-02-15T05:06:06;100741.66;;;9.21;100.00
31092;BME280;67728;53.122;12.776;2024-02-15T05:07:40;100732.19;;;9.20;100.00
31092;BME280;67728;53.122;12.776;2024-02-15T05:09:13;100727.00;;;9.22;100.00
31092;BME280;67728;53.122;12.776;2024-02-15T05:10:44;100731.31;;;9.21;100.00
31092;BME280;67728;53.122;12.776;2024-02-15T05:12:22;100733.00;;;9.22;100.00
31092;BME280;67728;53.122;12.776;2024-02-15T05:13:55;100750.28;;;9.23;100.00
31092;BME280;67728;53.122;12.776;2024-02-15T05:15:28;100739.91;;;9.23;100.00
31092;BME280;67728;53.122;12.776;2024-02-15T05:17:00;100740.78;;;9.24;100.00
31092;BME280;67728;53.122;12.776;2024-02-15T05:18:30;100747.66;;;9.25;100.00
31092;BME280;67728;53.122;12.776;2024-02-15T05:20:02;100741.63;;;9.26;100.00
31092;BME280;67728;53.122;12.776;2024-02-15T05:21:40;100737.31;;;9.26;100.00
31092;BME280;67728;53.122;12.776;2024-02-15T05:23:15;100746.75;;;9.27;100.00
31092;BME280;67728;53.122;12.776;2024-02-15T05:24:48;100744.19;;;9.27;100.00
31092;BME280;67728;53.122;12.776;2024-02-15T05:26:20;100745.03;;;9.28;100.00
31092;BME280;67728;53.122;12.776;2024-02-15T05:27:53;100745.03;;;9.29;100.00
31092;BME280;67728;53.122;12.776;2024-02-15T05:29:25;100746.75;;;9.29;100.00
31092;BME280;67728;53.122;12.776;2024-02-15T05:31:11;100732.97;;;9.30;100.00
31092;BME280;67728;53.122;12.776;2024-02-15T05:32:44;100741.56;;;9.30;100.00
31092;BME280;67728;53.122;12.776;2024-02-15T05:34:16;100734.66;;;9.32;100.00
31092;BME280;67728;53.122;12.776;2024-02-15T05:35:47;100739.84;;;9.32;100.00
31092;BME280;67728;53.122;12.776;2024-02-15T05:37:21;100738.97;;;9.32;100.00
31092;BME280;67728;53.122;12.776;2024-02-15T05:38:54;100730.34;;;9.31;100.00
31092;BME280;67728;53.122;12.776;2024-02-15T05:40:24;100736.38;;;9.32;100.00
31092;BME280;67728;53.122;12.776;2024-02-15T05:41:56;100738.09;;;9.33;100.00
31092;BME280;67728;53.122;12.776;2024-02-15T05:43:31;100730.31;;;9.33;100.00
31092;BME280;67728;53.122;12.776;2024-02-15T05:45:28;100737.22;;;9.34;100.00
31092;BME280;67728;53.122;12.776;2024-02-15T05:47:03;100726.88;;;9.34;100.00
31092;BME280;67728;53.122;12.776;2024-02-15T05:48:35;100731.19;;;9.33;100.00
31092;BME280;67728;53.122;12.776;2024-02-15T05:50:07;100733.78;;;9.35;100.00
31092;BME280;67728;53.122;12.776;2024-02-15T05:51:39;100732.00;;;9.35;100.00
31092;BME280;67728;53.122;12.776;2024-02-15T05:53:11;100731.16;;;9.36;100.00
31092;BME280;67728;53.122;12.776;2024-02-15T05:54:41;100723.38;;;9.36;100.00
31092;BME280;67728;53.122;12.776;2024-02-15T05:56:13;100729.44;;;9.37;100.00
31092;BME280;67728;53.122;12.776;2024-02-15T05:57:45;100731.16;;;9.38;100.00
31092;BME280;67728;53.122;12.776;2024-02-15T05:59:15;100725.97;;;9.38;100.00
31092;BME280;67728;53.122;12.776;2024-02-15T06:00:48;100728.56;;;9.38;100.00
31092;BME280;67728;53.122;12.776;2024-02-15T06:02:20;100727.69;;;9.37;100.00
31092;BME280;67728;53.122;12.776;2024-02-15T06:03:51;100728.56;;;9.38;100.00
31092;BME280;67728;53.122;12.776;2024-02-15T06:05:25;100737.19;;;9.37;100.00
31092;BME280;67728;53.122;12.776;2024-02-15T06:06:55;100733.75;;;9.38;100.00
31092;BME280;67728;53.122;12.776;2024-02-15T06:08:30;100734.56;;;9.38;100.00
31092;BME280;67728;53.122;12.776;2024-02-15T06:10:01;100732.88;;;9.37;100.00
31092;BME280;67728;53.122;12.776;2024-02-15T06:11:34;100743.22;;;9.39;100.00
31092;BME280;67728;53.122;12.776;2024-02-15T06:13:07;100737.16;;;9.38;100.00
31092;BME280;67728;53.122;12.776;2024-02-15T06:14:39;100733.72;;;9.39;100.00
31092;BME280;67728;53.122;12.776;2024-02-15T06:16:12;100739.75;;;9.40;100.00
31092;BME280;67728;53.122;12.776;2024-02-15T06:17:44;100744.03;;;9.41;100.00
31092;BME280;67728;53.122;12.776;2024-02-15T06:19:16;100744.91;;;9.41;100.00
31092;BME280;67728;53.122;12.776;2024-02-15T06:20:47;100738.88;;;9.42;100.00
31092;BME280;67728;53.122;12.776;2024-02-15T06:22:20;100741.44;;;9.44;100.00
31092;BME280;67728;53.122;12.776;2024-02-15T06:23:51;100744.00;;;9.45;100.00
31092;BME280;67728;53.122;12.776;2024-02-15T06:25:23;100744.88;;;9.46;100.00
31092;BME280;67728;53.122;12.776;2024-02-15T06:26:55;100748.28;;;9.46;100.00
31092;BME280;67728;53.122;12.776;2024-02-15T06:28:30;100754.34;;;9.47;100.00
31092;BME280;67728;53.122;12.776;2024-02-15T06:30:19;100753.47;;;9.48;100.00
31092;BME280;67728;53.122;12.776;2024-02-15T06:32:09;100760.34;;;9.49;100.00
31092;BME280;67728;53.122;12.776;2024-02-15T06:33:58;100763.84;;;9.48;100.00
31092;BME280;67728;53.122;12.776;2024-02-15T06:35:47;100763.81;;;9.49;100.00
31092;BME280;67728;53.122;12.776;2024-02-15T06:37:38;100773.31;;;9.50;100.00
31092;BME280;67728;53.122;12.776;2024-02-15T06:39:28;100775.03;;;9.51;100.00
31092;BME280;67728;53.122;12.776;2024-02-15T06:41:15;100768.97;;;9.52;100.00
31092;BME280;67728;53.122;12.776;2024-02-15T06:42:47;100775.00;;;9.53;100.00
31092;BME280;67728;53.122;12.776;2024-02-15T06:44:19;100769.81;;;9.53;100.00
31092;BME280;67728;53.122;12.776;2024-02-15T06:45:49;100770.69;;;9.53;100.00
31092;BME280;67728;53.122;12.776;2024-02-15T06:47:22;100768.09;;;9.53;100.00
31092;BME280;67728;53.122;12.776;2024-02-15T06:48:53;100773.25;;;9.55;100.00
31092;BME280;67728;53.122;12.776;2024-02-15T06:50:25;100773.25;;;9.55;100.00
31092;BME280;67728;53.122;12.776;2024-02-15T06:51:56;100774.09;;;9.55;100.00
31092;BME280;67728;53.122;12.776;2024-02-15T06:53:29;100774.06;;;9.57;100.00
31092;BME280;67728;53.122;12.776;2024-02-15T06:55:00;100768.91;;;9.58;100.00
31092;BME280;67728;53.122;12.776;2024-02-15T06:56:36;100772.31;;;9.60;100.00
31092;BME280;67728;53.122;12.776;2024-02-15T06:58:06;100771.47;;;9.61;100.00
31092;BME280;67728;53.122;12.776;2024-02-15T06:59:38;100769.72;;;9.62;100.00
31092;BME280;67728;53.122;12.776;2024-02-15T07:01:10;100770.56;;;9.62;100.00
31092;BME280;67728;53.122;12.776;2024-02-15T07:02:45;100763.66;;;9.65;100.00
31092;BME280;67728;53.122;12.776;2024-02-15T07:04:18;100774.00;;;9.66;100.00
31092;BME280;67728;53.122;12.776;2024-02-15T07:05:49;100773.13;;;9.67;100.00
31092;BME280;67728;53.122;12.776;2024-02-15T07:07:21;100776.59;;;9.68;100.00
31092;BME280;67728;53.122;12.776;2024-02-15T07:08:52;100777.41;;;9.68;100.00
31092;BME280;67728;53.122;12.776;2024-02-15T07:10:25;100777.41;;;9.68;100.00
31092;BME280;67728;53.122;12.776;2024-02-15T07:11:56;100774.81;;;9.68;100.00
31092;BME280;67728;53.122;12.776;2024-02-15T07:13:29;100771.38;;;9.69;100.00
31092;BME280;67728;53.122;12.776;2024-02-15T07:15:00;100779.09;;;9.71;100.00
31092;BME280;67728;53.122;12.776;2024-02-15T07:16:34;100773.94;;;9.71;100.00
31092;BME280;67728;53.122;12.776;2024-02-15T07:18:06;100774.78;;;9.71;100.00
31092;BME280;67728;53.122;12.776;2024-02-15T07:19:42;100767.88;;;9.72;100.00
31092;BME280;67728;53.122;12.776;2024-02-15T07:21:13;100760.97;;;9.72;100.00
31092;BME280;67728;53.122;12.776;2024-02-15T07:22:47;100769.59;;;9.74;100.00
31092;BME280;67728;53.122;12.776;2024-02-15T07:24:17;100768.72;;;9.74;100.00
31092;BME280;67728;53.122;12.776;2024-02-15T07:25:49;100772.16;;;9.74;100.00
31092;BME280;67728;53.122;12.776;2024-02-15T07:27:24;100772.19;;;9.76;100.00
31092;BME280;67728;53.122;12.776;2024-02-15T07:28:57;100770.44;;;9.75;100.00
31092;BME280;67728;53.122;12.776;2024-02-15T07:30:27;100767.00;;;9.76;100.00
31092;BME280;67728;53.122;12.776;2024-02-15T07:32:00;100769.56;;;9.77;100.00
31092;BME280;67728;53.122;12.776;2024-02-15T07:33:34;100769.56;;;9.77;100.00
31092;BME280;67728;53.122;12.776;2024-02-15T07:35:06;100766.09;;;9.78;100.00
31092;BME280;67728;53.122;12.776;2024-02-15T07:36:37;100778.16;;;9.79;100.00
31092;BME280;67728;53.122;12.776;2024-02-15T07:38:12;100788.50;;;9.79;100.00
31092;BME280;67728;53.122;12.776;2024-02-15T07:39:43;100785.06;;;9.80;100.00
31092;BME280;67728;53.122;12.776;2024-02-15T07:41:14;100784.16;;;9.83;100.00
31092;BME280;67728;53.122;12.776;2024-02-15T07:42:45;100791.09;;;9.84;100.00
31092;BME280;67728;53.122;12.776;2024-02-15T07:44:17;100790.22;;;9.83;100.00
31092;BME280;67728;53.122;12.776;2024-02-15T07:45:48;100794.50;;;9.86;100.00
31092;BME280;67728;53.122;12.776;2024-02-15T07:47:19;100789.28;;;9.87;100.00
31092;BME280;67728;53.122;12.776;2024-02-15T07:48:55;100793.56;;;9.90;100.00
31092;BME280;67728;53.122;12.776;2024-02-15T07:50:27;100784.09;;;9.89;100.00
31092;BME280;67728;53.122;12.776;2024-02-15T07:51:59;100794.44;;;9.90;100.00
31092;BME280;67728;53.122;12.776;2024-02-15T07:53:31;100788.41;;;9.91;100.00
31092;BME280;67728;53.122;12.776;2024-02-15T07:55:01;100791.81;;;9.93;100.00
31092;BME280;67728;53.122;12.776;2024-02-15T07:56:39;100789.19;;;9.95;100.00
31092;BME280;67728;53.122;12.776;2024-02-15T07:58:10;100793.50;;;9.96;100.00